createdAt,value
2023-01-21T00:02:56.519Z,21.00
2023-01-21T00:05:59.776Z,20.20
2023-01-21T00:09:04.114Z,20.70
2023-01-21T00:12:07.606Z,18.80
2023-01-21T00:15:11.048Z,19.80
2023-01-21T00:18:15.324Z,16.20
2023-01-21T00:21:18.677Z,18.50
2023-01-21T00:24:24.456Z,18.70
2023-01-21T00:27:27.737Z,17.60
2023-01-21T00:30:31.052Z,16.20
2023-01-21T00:33:45.238Z,16.30
2023-01-21T00:36:48.455Z,16.50
2023-01-21T00:39:51.955Z,14.20
2023-01-21T00:42:55.284Z,11.30
2023-01-21T00:45:59.091Z,12.40
2023-01-21T00:49:02.501Z,13.00
2023-01-21T00:52:05.857Z,15.00
2023-01-21T00:55:09.332Z,13.00
2023-01-21T00:58:12.768Z,13.20
2023-01-21T01:01:19.340Z,14.70
2023-01-21T01:04:23.087Z,11.20
2023-01-21T01:07:26.247Z,13.80
2023-01-21T01:10:29.504Z,11.40
2023-01-21T01:13:34.975Z,13.30
2023-01-21T01:16:38.294Z,11.60
2023-01-21T01:19:41.507Z,11.30
2023-01-21T01:22:44.743Z,13.70
2023-01-21T01:26:02.792Z,10.10
2023-01-21T01:29:06.740Z,10.40
2023-01-21T01:32:10.843Z,11.80
2023-01-21T01:35:14.086Z,15.30
2023-01-21T01:38:22.466Z,12.30
2023-01-21T01:41:29.536Z,11.20
2023-01-21T01:44:57.558Z,13.70
2023-01-21T01:48:06.230Z,12.40
2023-01-21T01:51:10.086Z,12.00
2023-01-21T01:54:18.180Z,14.60
2023-01-21T01:57:24.005Z,10.70
2023-01-21T02:00:27.632Z,13.20
2023-01-21T02:03:44.929Z,11.00
2023-01-21T02:06:49.052Z,10.20
2023-01-21T02:09:53.801Z,11.60
2023-01-21T02:12:57.045Z,12.60
2023-01-21T02:16:15.126Z,10.20
2023-01-21T02:19:42.288Z,10.80
2023-01-21T02:23:12.344Z,10.00
2023-01-21T02:26:21.032Z,9.90
2023-01-21T02:29:52.941Z,9.60
2023-01-21T02:33:14.400Z,10.40
2023-01-21T02:36:35.971Z,10.80
2023-01-21T02:39:54.468Z,6.30
2023-01-21T02:43:08.396Z,10.70
2023-01-21T02:46:34.115Z,10.20
2023-01-21T02:49:45.407Z,24.70
2023-01-21T02:52:59.072Z,41.20
2023-01-21T02:56:12.201Z,35.80
2023-01-21T02:59:15.424Z,18.80
2023-01-21T03:02:46.474Z,10.50
2023-01-21T03:05:57.104Z,9.40
2023-01-21T03:09:10.232Z,11.40
2023-01-21T03:12:45.277Z,10.70
2023-01-21T03:16:14.409Z,13.10
2023-01-21T03:19:19.660Z,12.80
2023-01-21T03:22:27.983Z,11.00
2023-01-21T03:25:34.004Z,8.30
2023-01-21T03:28:44.759Z,9.40
2023-01-21T03:31:52.207Z,8.80
2023-01-21T03:34:56.706Z,6.60
2023-01-21T03:38:21.784Z,16.60
2023-01-21T03:41:33.580Z,9.30
2023-01-21T03:44:38.000Z,9.30
2023-01-21T03:47:50.473Z,10.30
2023-01-21T03:50:59.781Z,7.20
2023-01-21T03:54:03.051Z,6.60
2023-01-21T03:57:06.537Z,8.00
2023-01-21T04:00:10.798Z,9.30
2023-01-21T04:03:13.985Z,8.90
2023-01-21T04:06:20.233Z,9.10
2023-01-21T04:09:23.711Z,8.10
2023-01-21T04:12:26.896Z,9.50
2023-01-21T04:15:30.055Z,8.80
2023-01-21T04:18:33.411Z,8.60
2023-01-21T04:21:36.598Z,7.70
2023-01-21T04:24:40.473Z,9.60
2023-01-21T04:27:43.656Z,10.80
2023-01-21T04:30:47.541Z,9.30
2023-01-21T04:33:50.752Z,7.70
2023-01-21T04:36:53.927Z,7.80
2023-01-21T04:39:57.110Z,7.90
2023-01-21T04:43:00.318Z,9.00
2023-01-21T04:46:03.746Z,7.80
2023-01-21T04:49:06.916Z,7.50
2023-01-21T04:52:10.313Z,8.20
2023-01-21T04:55:13.520Z,8.60
2023-01-21T04:58:16.701Z,10.60
2023-01-21T05:01:19.839Z,9.50
2023-01-21T05:04:23.052Z,13.30
2023-01-21T05:07:26.342Z,12.70
2023-01-21T05:10:29.909Z,10.40
2023-01-21T05:13:33.418Z,11.80
2023-01-21T05:16:36.891Z,9.80
2023-01-21T05:19:40.085Z,9.50
2023-01-21T05:22:47.843Z,7.00
2023-01-21T05:25:51.129Z,7.80
2023-01-21T05:28:54.281Z,8.30
2023-01-21T05:31:57.478Z,7.30
2023-01-21T05:35:00.618Z,7.30
2023-01-21T05:38:03.875Z,6.40
2023-01-21T05:41:07.156Z,12.20
2023-01-21T05:44:10.619Z,13.70
2023-01-21T05:47:13.838Z,16.30
2023-01-21T05:50:18.299Z,16.60
2023-01-21T05:53:21.702Z,16.90
2023-01-21T05:56:24.905Z,17.20
2023-01-21T05:59:28.588Z,14.80
2023-01-21T06:02:31.851Z,10.80
2023-01-21T06:05:35.190Z,14.70
2023-01-21T06:08:38.621Z,14.60
2023-01-21T06:11:42.162Z,16.90
2023-01-21T06:14:45.299Z,14.90
2023-01-21T06:17:48.415Z,13.90
2023-01-21T06:20:51.677Z,14.20
2023-01-21T06:23:54.866Z,12.20
2023-01-21T06:26:58.043Z,10.80
2023-01-21T06:30:01.201Z,11.30
2023-01-21T06:33:04.632Z,9.40
2023-01-21T06:36:08.511Z,9.50
2023-01-21T06:39:11.841Z,9.50
2023-01-21T06:42:17.868Z,8.40
2023-01-21T06:45:21.133Z,13.90
2023-01-21T06:48:24.385Z,14.10
2023-01-21T06:51:27.635Z,11.60
2023-01-21T06:54:30.963Z,10.20
2023-01-21T06:57:34.154Z,14.30
2023-01-21T07:00:37.414Z,13.50
2023-01-21T07:03:40.595Z,12.90
2023-01-21T07:06:43.893Z,9.70
2023-01-21T07:09:47.193Z,13.20
2023-01-21T07:12:50.820Z,10.50
2023-01-21T07:15:59.851Z,9.80
2023-01-21T07:19:03.309Z,9.80
2023-01-21T07:22:06.607Z,10.80
2023-01-21T07:25:10.108Z,11.10
2023-01-21T07:28:13.303Z,11.40
2023-01-21T07:31:16.580Z,11.20
2023-01-21T07:34:19.916Z,8.40
2023-01-21T07:37:23.127Z,7.80
2023-01-21T07:40:26.416Z,10.00
2023-01-21T07:43:29.608Z,8.70
2023-01-21T07:46:33.329Z,9.30
2023-01-21T07:49:37.796Z,11.20
2023-01-21T07:52:41.106Z,14.80
2023-01-21T07:55:44.317Z,13.00
2023-01-21T07:58:47.747Z,9.60
2023-01-21T08:01:50.999Z,11.00
2023-01-21T08:04:54.370Z,9.60
2023-01-21T08:07:58.798Z,13.30
2023-01-21T08:11:02.042Z,12.00
2023-01-21T08:14:05.762Z,10.50
2023-01-21T08:17:09.870Z,16.80
2023-01-21T08:20:13.689Z,18.20
2023-01-21T08:23:16.914Z,14.50
2023-01-21T08:26:20.131Z,15.80
2023-01-21T08:29:23.360Z,23.30
2023-01-21T08:32:29.881Z,25.00
2023-01-21T08:35:33.065Z,15.40
2023-01-21T08:38:36.963Z,14.60
2023-01-21T08:41:42.879Z,12.80
2023-01-21T08:44:46.511Z,13.60
2023-01-21T08:47:49.675Z,12.50
2023-01-21T08:50:52.896Z,10.40
2023-01-21T08:53:56.117Z,13.60
2023-01-21T08:56:59.269Z,14.20
2023-01-21T09:00:02.491Z,11.30
2023-01-21T09:03:05.761Z,17.10
2023-01-21T09:06:12.617Z,14.50
2023-01-21T09:09:16.211Z,13.50
2023-01-21T09:12:19.531Z,17.80
2023-01-21T09:15:22.741Z,14.20
2023-01-21T09:18:26.053Z,16.70
2023-01-21T09:21:34.552Z,18.60
2023-01-21T09:24:37.850Z,18.40
2023-01-21T09:27:41.292Z,11.50
2023-01-21T09:30:44.730Z,13.60
2023-01-21T09:33:50.232Z,15.00
2023-01-21T09:36:53.555Z,13.20
2023-01-21T09:39:56.714Z,11.30
2023-01-21T09:43:11.020Z,14.00
2023-01-21T09:46:55.496Z,17.30
2023-01-21T09:50:14.169Z,18.90
2023-01-21T09:53:32.574Z,21.20
2023-01-21T09:56:45.566Z,12.90
2023-01-21T10:00:10.013Z,11.50
2023-01-21T10:03:37.297Z,10.70
2023-01-21T10:06:59.781Z,13.40
2023-01-21T10:10:27.890Z,11.80
2023-01-21T10:13:46.332Z,12.60
2023-01-21T10:17:13.601Z,16.80
2023-01-21T10:20:27.197Z,17.20
2023-01-21T10:23:43.718Z,15.90
2023-01-21T10:26:49.677Z,14.70
2023-01-21T10:30:22.396Z,12.90
2023-01-21T10:36:49.392Z,13.10
2023-01-21T10:40:38.861Z,10.30
2023-01-21T10:43:54.959Z,11.60
2023-01-21T10:47:34.473Z,14.70
2023-01-21T10:51:28.794Z,12.10
2023-01-21T10:54:47.127Z,11.50
2023-01-21T10:58:04.068Z,16.50
2023-01-21T11:01:18.752Z,15.10
2023-01-21T11:04:24.482Z,12.10
2023-01-21T11:07:34.891Z,12.20
2023-01-21T11:10:40.359Z,13.70
2023-01-21T11:13:43.623Z,12.30
2023-01-21T11:16:50.059Z,17.00
2023-01-21T11:20:00.768Z,15.20
2023-01-21T11:23:24.339Z,19.90
2023-01-21T11:26:28.246Z,14.30
2023-01-21T11:29:41.553Z,12.70
2023-01-21T11:32:44.894Z,17.00
2023-01-21T11:35:48.422Z,16.20
2023-01-21T11:39:06.620Z,20.80
2023-01-21T11:42:17.120Z,16.20
2023-01-21T11:45:31.170Z,15.40
2023-01-21T11:48:35.430Z,17.20
2023-01-21T11:51:41.233Z,17.20
2023-01-21T11:54:45.326Z,16.60
2023-01-21T11:57:53.268Z,13.90
2023-01-21T12:00:59.945Z,13.20
2023-01-21T12:04:03.346Z,17.30
2023-01-21T12:07:06.655Z,12.00
2023-01-21T12:10:12.890Z,13.10
2023-01-21T12:13:24.092Z,13.00
2023-01-21T12:16:37.398Z,15.80
2023-01-21T12:19:57.463Z,39.30
2023-01-21T12:23:23.959Z,46.70
2023-01-21T12:26:33.014Z,43.90
2023-01-21T12:29:52.596Z,26.40
2023-01-21T12:33:03.718Z,20.80
2023-01-21T12:36:17.661Z,19.20
2023-01-21T12:39:29.094Z,21.70
2023-01-21T12:42:41.200Z,22.70
2023-01-21T12:45:53.640Z,28.00
2023-01-21T12:52:07.551Z,23.20
2023-01-21T12:55:25.561Z,35.50
2023-01-21T12:58:42.852Z,20.20
2023-01-21T13:02:05.794Z,29.60
2023-01-21T13:05:19.389Z,18.60
2023-01-21T13:08:43.658Z,17.70
2023-01-21T13:11:54.830Z,15.50
2023-01-21T13:15:14.761Z,11.60
2023-01-21T13:18:35.489Z,11.60
2023-01-21T13:22:01.390Z,10.90
2023-01-21T13:25:25.679Z,10.40
2023-01-21T13:29:06.135Z,12.10
2023-01-21T13:32:18.963Z,9.10
2023-01-21T13:35:40.752Z,14.10
2023-01-21T13:38:55.275Z,19.90
2023-01-21T13:42:07.456Z,16.30
2023-01-21T13:45:34.743Z,17.60
2023-01-21T13:49:14.878Z,18.10
2023-01-21T13:52:39.408Z,11.30
2023-01-21T13:56:15.610Z,15.70
2023-01-21T13:59:25.179Z,14.80
2023-01-21T14:02:56.658Z,15.20
2023-01-21T14:06:17.638Z,12.00
2023-01-21T14:09:29.588Z,13.90
2023-01-21T14:12:54.946Z,18.60
2023-01-21T14:16:32.351Z,22.80
2023-01-21T14:19:54.715Z,23.30
2023-01-21T14:23:05.736Z,25.40
2023-01-21T14:26:35.996Z,22.20
2023-01-21T14:29:46.687Z,22.20
2023-01-21T14:32:57.159Z,33.60
2023-01-21T14:36:39.530Z,31.10
2023-01-21T14:40:09.612Z,38.30
2023-01-21T14:43:30.921Z,35.50
2023-01-21T14:46:34.405Z,30.60
2023-01-21T14:49:43.526Z,33.70
2023-01-21T14:52:47.242Z,34.00
2023-01-21T14:56:09.055Z,32.10
2023-01-21T14:59:43.654Z,28.90
2023-01-21T15:02:52.234Z,26.30
2023-01-21T15:06:00.507Z,26.10
2023-01-21T15:09:05.545Z,33.30
2023-01-21T15:12:22.144Z,39.90
2023-01-21T15:15:39.887Z,37.50
2023-01-21T15:19:05.179Z,34.10
2023-01-21T15:22:35.465Z,39.20
2023-01-21T15:26:07.456Z,37.30
2023-01-21T15:29:34.358Z,38.20
2023-01-21T15:32:44.769Z,35.00
2023-01-21T15:35:48.280Z,36.50
2023-01-21T15:38:54.591Z,32.70
2023-01-21T15:42:30.318Z,33.10
2023-01-21T15:45:45.109Z,33.30
2023-01-21T15:49:19.208Z,28.20
2023-01-21T15:52:44.151Z,29.60
2023-01-21T15:56:13.149Z,28.40
2023-01-21T15:59:36.050Z,45.90
2023-01-21T16:02:57.921Z,46.90
2023-01-21T16:06:14.909Z,52.40
2023-01-21T16:09:34.111Z,51.10
2023-01-21T16:12:43.526Z,51.10
2023-01-21T16:16:02.465Z,52.40
2023-01-21T16:19:13.519Z,50.10
2023-01-21T16:22:25.717Z,46.10
2023-01-21T16:28:51.416Z,39.50
2023-01-21T16:32:01.532Z,38.40
2023-01-21T16:35:05.904Z,39.70
2023-01-21T16:38:15.303Z,37.70
2023-01-21T16:41:24.069Z,38.00
2023-01-21T16:44:27.492Z,39.20
2023-01-21T16:47:36.214Z,36.20
2023-01-21T16:50:46.710Z,46.10
2023-01-21T16:53:53.745Z,46.50
2023-01-21T16:57:02.488Z,44.10
2023-01-21T17:00:22.458Z,46.60
2023-01-21T17:03:25.813Z,50.70
2023-01-21T17:06:31.991Z,58.50
2023-01-21T17:09:37.121Z,50.60
2023-01-21T17:12:40.661Z,48.60
2023-01-21T17:15:57.396Z,49.80
2023-01-21T17:19:08.557Z,55.40
2023-01-21T17:22:19.017Z,53.00
2023-01-21T17:25:25.858Z,52.00
2023-01-21T17:28:44.376Z,47.60
2023-01-21T17:32:04.862Z,49.40
2023-01-21T17:35:17.884Z,48.00
2023-01-21T17:38:30.210Z,51.10
2023-01-21T17:41:38.245Z,36.50
2023-01-21T17:44:46.257Z,52.20
2023-01-21T17:48:08.596Z,50.30
2023-01-21T17:51:22.254Z,55.20
2023-01-21T17:54:29.680Z,55.30
2023-01-21T17:57:35.625Z,58.30
2023-01-21T18:00:43.251Z,58.20
2023-01-21T18:03:46.794Z,57.30
2023-01-21T18:06:52.219Z,56.90
2023-01-21T18:10:02.317Z,57.00
2023-01-21T18:13:05.949Z,54.40
2023-01-21T18:16:09.726Z,54.70
2023-01-21T18:19:32.202Z,53.80
2023-01-21T18:22:36.163Z,57.30
2023-01-21T18:25:43.609Z,57.00
2023-01-21T18:28:46.856Z,58.30
2023-01-21T18:31:52.174Z,56.10
2023-01-21T18:34:55.475Z,56.20
2023-01-21T18:37:58.681Z,56.90
2023-01-21T18:41:02.140Z,52.90
2023-01-21T18:44:05.455Z,57.00
2023-01-21T18:47:15.938Z,54.10
2023-01-21T18:50:22.401Z,55.00
2023-01-21T18:53:25.964Z,59.40
2023-01-21T18:56:29.230Z,50.50
2023-01-21T18:59:34.667Z,58.00
2023-01-21T19:02:38.915Z,60.70
2023-01-21T19:05:45.601Z,60.20
2023-01-21T19:08:51.233Z,60.30
2023-01-21T19:12:01.591Z,62.80
2023-01-21T19:15:08.193Z,80.90
2023-01-21T19:18:13.191Z,80.00
2023-01-21T19:21:16.988Z,92.10
2023-01-21T19:24:21.049Z,73.20
2023-01-21T19:27:29.340Z,70.10
2023-01-21T19:30:32.856Z,73.10
2023-01-21T19:33:36.253Z,78.10
2023-01-21T19:36:40.192Z,88.10
2023-01-21T19:39:43.412Z,96.00
2023-01-21T19:42:47.340Z,97.70
2023-01-21T19:45:52.845Z,103.80
2023-01-21T19:48:57.835Z,114.70
2023-01-21T19:52:01.180Z,121.60
2023-01-21T19:55:06.376Z,122.10
2023-01-21T19:58:19.760Z,109.60
2023-01-21T20:01:23.407Z,115.60
2023-01-21T20:04:26.598Z,130.80
2023-01-21T20:07:30.995Z,122.60
2023-01-21T20:10:34.229Z,121.60
2023-01-21T20:13:39.339Z,116.50
2023-01-21T20:16:50.043Z,107.50
2023-01-21T20:19:53.287Z,114.50
2023-01-21T20:22:56.769Z,95.10
2023-01-21T20:26:00.957Z,79.20
2023-01-21T20:29:06.752Z,78.50
2023-01-21T20:32:10.703Z,80.90
2023-01-21T20:35:15.919Z,79.10
2023-01-21T20:38:30.252Z,90.80
2023-01-21T20:41:34.442Z,88.90
2023-01-21T20:44:37.684Z,93.90
2023-01-21T20:47:50.128Z,101.30
2023-01-21T20:50:54.182Z,97.90
2023-01-21T20:53:57.447Z,100.20
2023-01-21T20:57:00.707Z,101.00
2023-01-21T21:00:05.440Z,111.20
2023-01-21T21:03:08.727Z,109.90
2023-01-21T21:06:22.079Z,112.80
2023-01-21T21:09:25.240Z,114.40
2023-01-21T21:12:28.448Z,113.90
2023-01-21T21:15:34.330Z,108.90
2023-01-21T21:18:37.473Z,99.60
2023-01-21T21:21:40.666Z,99.00
2023-01-21T21:24:43.945Z,102.20
2023-01-21T21:27:47.341Z,104.50
2023-01-21T21:30:50.553Z,100.80
2023-01-21T21:33:53.837Z,101.20
2023-01-21T21:36:57.252Z,102.70
2023-01-21T21:40:00.752Z,108.40
2023-01-21T21:43:23.559Z,99.30
2023-01-21T21:46:45.502Z,91.80
2023-01-21T21:49:48.693Z,92.80
2023-01-21T21:52:51.901Z,89.30
2023-01-21T21:55:55.089Z,85.70
2023-01-21T21:58:58.259Z,91.40
2023-01-21T22:02:01.443Z,93.70
2023-01-21T22:05:05.072Z,90.80
2023-01-21T22:08:09.249Z,89.70
2023-01-21T22:11:20.551Z,91.80
2023-01-21T22:14:23.708Z,83.30
2023-01-21T22:17:26.939Z,80.90
2023-01-21T22:20:30.134Z,90.40
2023-01-21T22:23:35.671Z,84.90
2023-01-21T22:26:38.863Z,89.30
2023-01-21T22:29:42.066Z,80.40
2023-01-21T22:32:45.369Z,80.60
2023-01-21T22:35:48.547Z,81.30
2023-01-21T22:38:52.557Z,81.80
2023-01-21T22:41:55.844Z,78.20
2023-01-21T22:44:59.073Z,79.90
2023-01-21T22:48:02.472Z,78.40
2023-01-21T22:51:05.916Z,78.90
2023-01-21T22:54:10.128Z,80.20
2023-01-21T22:57:13.542Z,84.10
2023-01-21T23:00:34.624Z,86.60
2023-01-21T23:03:37.858Z,81.10
2023-01-21T23:06:41.095Z,73.00
2023-01-21T23:09:44.330Z,77.10
2023-01-21T23:12:48.182Z,81.20
2023-01-21T23:15:51.427Z,81.60
2023-01-21T23:18:54.585Z,85.10
2023-01-21T23:21:57.741Z,86.00
2023-01-21T23:25:00.932Z,87.90
2023-01-21T23:28:04.335Z,90.30
2023-01-21T23:31:13.876Z,90.80
2023-01-21T23:34:17.716Z,82.10
2023-01-21T23:37:20.929Z,82.40
2023-01-21T23:40:24.064Z,84.70
2023-01-21T23:43:27.422Z,82.70
2023-01-21T23:46:30.785Z,84.60
2023-01-21T23:49:34.115Z,76.60
2023-01-21T23:52:40.818Z,85.30
2023-01-21T23:55:44.675Z,86.40
2023-01-21T23:58:48.159Z,83.30
